BISP weather

Sprengisandur Airport
Sprengisandur, Southern Region, Iceland

Public forecast

Using degrees Celsius for public forecast. Weather courtesy of forecast.io.

Closest aviation weather report (METAR) to Sprengisandur Airport

Closest report is Akureyri Airport, 61.3 nm (113.6 km) N. Retrieved 2019/10/15 10:00 UTC (2 minutes ago):

BIAR 151000Z VRB04KT 9999 BKN034 08/02 Q1001 RMK WIND VADLAHEIDI 10037KT

Closest aviation forecast (TAF) to Sprengisandur Airport

Closest forecast is Akureyri Airport, 61.3 nm (113.6 km) N. Retrieved 2019/10/15 09:45 UTC (17 minutes ago):

TAF TAF BIAR 150741Z 1509/1609 14010KT 9999 SCT020 BKN035 TX09/1515Z TN05/1603Z PROB40 TEMPO 1515/1600 12015G25KT